sensor_id;sensor_type;location;lat;lon;timestamp;temperature;humidity
61386;DHT22;47256;18.904;-99.054;2022-09-01T00:02:17;26.40;99.90
61386;DHT22;47256;18.904;-99.054;2022-09-01T00:04:44;26.40;99.90
61386;DHT22;47256;18.904;-99.054;2022-09-01T00:07:14;26.40;99.90
61386;DHT22;47256;18.904;-99.054;2022-09-01T00:09:43;26.40;99.90
61386;DHT22;47256;18.904;-99.054;2022-09-01T00:12:10;26.40;99.90
61386;DHT22;47256;18.904;-99.054;2022-09-01T00:14:39;26.40;99.90
61386;DHT22;47256;18.904;-99.054;2022-09-01T00:17:10;26.30;99.90
61386;DHT22;47256;18.904;-99.054;2022-09-01T00:19:38;26.30;99.90
61386;DHT22;47256;18.904;-99.054;2022-09-01T00:22:09;26.30;99.90
61386;DHT22;47256;18.904;-99.054;2022-09-01T00:24:36;26.30;99.90
61386;DHT22;47256;18.904;-99.054;2022-09-01T00:27:04;26.20;99.90
61386;DHT22;47256;18.904;-99.054;2022-09-01T00:29:31;26.20;99.90
61386;DHT22;47256;18.904;-99.054;2022-09-01T00:31:58;26.20;99.90
61386;DHT22;47256;18.904;-99.054;2022-09-01T00:34:25;26.20;99.90
61386;DHT22;47256;18.904;-99.054;2022-09-01T00:36:53;26.10;99.90
61386;DHT22;47256;18.904;-99.054;2022-09-01T00:39:20;26.10;99.90
61386;DHT22;47256;18.904;-99.054;2022-09-01T00:41:48;26.10;99.90
61386;DHT22;47256;18.904;-99.054;2022-09-01T00:44:18;26.00;99.90
61386;DHT22;47256;18.904;-99.054;2022-09-01T00:46:53;26.00;99.90
61386;DHT22;47256;18.904;-99.054;2022-09-01T00:49:46;26.00;99.90
61386;DHT22;47256;18.904;-99.054;2022-09-01T00:52:32;25.90;99.90
61386;DHT22;47256;18.904;-99.054;2022-09-01T00:55:26;25.90;99.90
61386;DHT22;47256;18.904;-99.054;2022-09-01T00:57:52;25.90;99.90
61386;DHT22;47256;18.904;-99.054;2022-09-01T01:00:26;25.90;99.90
61386;DHT22;47256;18.904;-99.054;2022-09-01T01:02:54;25.80;99.90
61386;DHT22;47256;18.904;-99.054;2022-09-01T01:05:30;25.80;99.90
61386;DHT22;47256;18.904;-99.054;2022-09-01T01:07:59;25.70;99.90
61386;DHT22;47256;18.904;-99.054;2022-09-01T01:10:31;25.70;99.90
61386;DHT22;47256;18.904;-99.054;2022-09-01T01:13:05;25.70;99.90
61386;DHT22;47256;18.904;-99.054;2022-09-01T01:15:36;25.70;99.90
61386;DHT22;47256;18.904;-99.054;2022-09-01T01:18:03;25.70;99.90
61386;DHT22;47256;18.904;-99.054;2022-09-01T01:20:33;25.60;99.90
61386;DHT22;47256;18.904;-99.054;2022-09-01T01:23:44;25.60;99.90
61386;DHT22;47256;18.904;-99.054;2022-09-01T01:26:15;25.60;99.90
61386;DHT22;47256;18.904;-99.054;2022-09-01T01:28:43;25.60;99.90
61386;DHT22;47256;18.904;-99.054;2022-09-01T01:31:18;25.50;99.90
61386;DHT22;47256;18.904;-99.054;2022-09-01T01:33:51;25.50;99.90
61386;DHT22;47256;18.904;-99.054;2022-09-01T01:36:23;25.50;99.90
61386;DHT22;47256;18.904;-99.054;2022-09-01T01:39:22;25.50;99.90
61386;DHT22;47256;18.904;-99.054;2022-09-01T01:41:51;25.50;99.90
61386;DHT22;47256;18.904;-99.054;2022-09-01T01:44:24;25.40;99.90
61386;DHT22;47256;18.904;-99.054;2022-09-01T01:47:01;25.30;99.90
61386;DHT22;47256;18.904;-99.054;2022-09-01T01:49:32;25.30;99.90
61386;DHT22;47256;18.904;-99.054;2022-09-01T01:52:00;25.20;99.90
61386;DHT22;47256;18.904;-99.054;2022-09-01T01:54:32;25.20;99.90
61386;DHT22;47256;18.904;-99.054;2022-09-01T01:57:00;25.20;99.90
61386;DHT22;47256;18.904;-99.054;2022-09-01T01:59:30;25.20;99.90
61386;DHT22;47256;18.904;-99.054;2022-09-01T02:02:00;25.10;99.90
61386;DHT22;47256;18.904;-99.054;2022-09-01T02:04:30;25.10;99.90
61386;DHT22;47256;18.904;-99.054;2022-09-01T02:07:09;25.10;99.90
61386;DHT22;47256;18.904;-99.054;2022-09-01T02:09:42;25.10;99.90
61386;DHT22;47256;18.904;-99.054;2022-09-01T02:12:17;25.20;99.90
61386;DHT22;47256;18.904;-99.054;2022-09-01T02:14:46;25.20;99.90
61386;DHT22;47256;18.904;-99.054;2022-09-01T02:17:16;25.10;99.90
61386;DHT22;47256;18.904;-99.054;2022-09-01T02:19:50;25.20;99.90
61386;DHT22;47256;18.904;-99.054;2022-09-01T02:22:25;25.20;99.90
61386;DHT22;47256;18.904;-99.054;2022-09-01T02:24:55;25.10;99.90
61386;DHT22;47256;18.904;-99.054;2022-09-01T02:27:25;25.10;99.90
61386;DHT22;47256;18.904;-99.054;2022-09-01T02:29:56;25.10;99.90
61386;DHT22;47256;18.904;-99.054;2022-09-01T02:32:25;25.00;99.90
61386;DHT22;47256;18.904;-99.054;2022-09-01T02:34:54;25.10;99.90
61386;DHT22;47256;18.904;-99.054;2022-09-01T02:37:35;25.00;99.90
61386;DHT22;47256;18.904;-99.054;2022-09-01T02:40:08;25.00;99.90
61386;DHT22;47256;18.904;-99.054;2022-09-01T02:42:38;25.00;99.90
61386;DHT22;47256;18.904;-99.054;2022-09-01T02:45:08;25.00;99.90
61386;DHT22;47256;18.904;-99.054;2022-09-01T02:47:43;25.00;99.90
61386;DHT22;47256;18.904;-99.054;2022-09-01T02:50:17;25.00;99.90
61386;DHT22;47256;18.904;-99.054;2022-09-01T02:52:46;25.00;99.90
61386;DHT22;47256;18.904;-99.054;2022-09-01T02:55:20;25.00;99.90
61386;DHT22;47256;18.904;-99.054;2022-09-01T02:57:50;25.00;99.90
61386;DHT22;47256;18.904;-99.054;2022-09-01T03:00:25;25.00;99.90
61386;DHT22;47256;18.904;-99.054;2022-09-01T03:03:00;25.00;99.90
61386;DHT22;47256;18.904;-99.054;2022-09-01T03:05:31;25.00;99.90
61386;DHT22;47256;18.904;-99.054;2022-09-01T03:08:03;25.00;99.90
61386;DHT22;47256;18.904;-99.054;2022-09-01T03:10:34;25.00;99.90
61386;DHT22;47256;18.904;-99.054;2022-09-01T03:13:16;25.00;99.90
61386;DHT22;47256;18.904;-99.054;2022-09-01T03:15:48;25.00;99.90
61386;DHT22;47256;18.904;-99.054;2022-09-01T03:18:16;25.00;99.90
61386;DHT22;47256;18.904;-99.054;2022-09-01T03:20:47;25.00;99.90
61386;DHT22;47256;18.904;-99.054;2022-09-01T03:23:17;25.00;99.90
61386;DHT22;47256;18.904;-99.054;2022-09-01T03:25:47;25.00;99.90
61386;DHT22;47256;18.904;-99.054;2022-09-01T03:28:16;25.00;99.90
61386;DHT22;47256;18.904;-99.054;2022-09-01T03:30:50;25.00;99.90
61386;DHT22;47256;18.904;-99.054;2022-09-01T03:33:27;24.90;99.90
61386;DHT22;47256;18.904;-99.054;2022-09-01T03:35:57;24.90;99.90
61386;DHT22;47256;18.904;-99.054;2022-09-01T03:38:25;24.90;99.90
61386;DHT22;47256;18.904;-99.054;2022-09-01T03:41:02;24.80;99.90
61386;DHT22;47256;18.904;-99.054;2022-09-01T03:43:32;24.80;99.90
61386;DHT22;47256;18.904;-99.054;2022-09-01T03:46:00;24.80;99.90
61386;DHT22;47256;18.904;-99.054;2022-09-01T03:48:29;24.80;99.90
61386;DHT22;47256;18.904;-99.054;2022-09-01T03:50:59;24.80;99.90
61386;DHT22;47256;18.904;-99.054;2022-09-01T03:53:34;24.80;99.90
61386;DHT22;47256;18.904;-99.054;2022-09-01T03:56:04;24.70;99.90
61386;DHT22;47256;18.904;-99.054;2022-09-01T03:58:34;24.70;99.90
61386;DHT22;47256;18.904;-99.054;2022-09-01T04:01:01;24.70;99.90
61386;DHT22;47256;18.904;-99.054;2022-09-01T04:03:32;24.70;99.90
61386;DHT22;47256;18.904;-99.054;2022-09-01T04:06:02;24.70;99.90
61386;DHT22;47256;18.904;-99.054;2022-09-01T04:08:31;24.70;99.90
61386;DHT22;47256;18.904;-99.054;2022-09-01T04:11:09;24.60;99.90
61386;DHT22;47256;18.904;-99.054;2022-09-01T04:13:41;24.50;99.90
61386;DHT22;47256;18.904;-99.054;2022-09-01T04:16:20;24.50;99.90
61386;DHT22;47256;18.904;-99.054;2022-09-01T04:19:08;24.50;99.90
61386;DHT22;47256;18.904;-99.054;2022-09-01T04:21:54;24.60;99.90
61386;DHT22;47256;18.904;-99.054;2022-09-01T04:24:25;24.60;99.90
61386;DHT22;47256;18.904;-99.054;2022-09-01T04:26:59;24.60;99.90
61386;DHT22;47256;18.904;-99.054;2022-09-01T04:29:30;24.60;99.90
61386;DHT22;47256;18.904;-99.054;2022-09-01T04:32:01;24.60;99.90
61386;DHT22;47256;18.904;-99.054;2022-09-01T04:34:33;24.50;99.90
61386;DHT22;47256;18.904;-99.054;2022-09-01T04:37:18;24.50;99.90
61386;DHT22;47256;18.904;-99.054;2022-09-01T04:39:49;24.50;99.90
61386;DHT22;47256;18.904;-99.054;2022-09-01T04:42:19;24.50;99.90
61386;DHT22;47256;18.904;-99.054;2022-09-01T04:44:50;24.50;99.90
61386;DHT22;47256;18.904;-99.054;2022-09-01T04:47:19;24.40;99.90
61386;DHT22;47256;18.904;-99.054;2022-09-01T04:49:58;24.50;99.90
61386;DHT22;47256;18.904;-99.054;2022-09-01T04:52:27;24.50;99.90
61386;DHT22;47256;18.904;-99.054;2022-09-01T04:54:59;24.50;99.90
61386;DHT22;47256;18.904;-99.054;2022-09-01T04:57:29;24.50;99.90
61386;DHT22;47256;18.904;-99.054;2022-09-01T04:59:57;24.40;99.90
61386;DHT22;47256;18.904;-99.054;2022-09-01T05:02:28;24.40;99.90
61386;DHT22;47256;18.904;-99.054;2022-09-01T05:05:22;24.30;99.90
61386;DHT22;47256;18.904;-99.054;2022-09-01T05:07:50;24.20;99.90
61386;DHT22;47256;18.904;-99.054;2022-09-01T05:10:20;24.10;99.90
61386;DHT22;47256;18.904;-99.054;2022-09-01T05:13:13;24.10;99.90
61386;DHT22;47256;18.904;-99.054;2022-09-01T05:15:45;24.10;99.90
61386;DHT22;47256;18.904;-99.054;2022-09-01T05:18:19;24.10;99.90
61386;DHT22;47256;18.904;-99.054;2022-09-01T05:20:55;24.10;99.90
61386;DHT22;47256;18.904;-99.054;2022-09-01T05:23:23;24.20;99.90
61386;DHT22;47256;18.904;-99.054;2022-09-01T05:25:52;24.20;99.90
61386;DHT22;47256;18.904;-99.054;2022-09-01T05:28:21;24.20;99.90
61386;DHT22;47256;18.904;-99.054;2022-09-01T05:30:52;24.20;99.90
61386;DHT22;47256;18.904;-99.054;2022-09-01T05:33:21;24.20;99.90
61386;DHT22;47256;18.904;-99.054;2022-09-01T05:35:56;24.20;99.90
61386;DHT22;47256;18.904;-99.054;2022-09-01T05:38:28;24.20;99.90
61386;DHT22;47256;18.904;-99.054;2022-09-01T05:41:00;24.20;99.90
61386;DHT22;47256;18.904;-99.054;2022-09-01T05:43:32;24.10;99.90
61386;DHT22;47256;18.904;-99.054;2022-09-01T05:46:00;24.00;99.90
61386;DHT22;47256;18.904;-99.054;2022-09-01T05:48:30;23.90;99.90
61386;DHT22;47256;18.904;-99.054;2022-09-01T05:51:05;24.00;99.90
61386;DHT22;47256;18.904;-99.054;2022-09-01T05:53:33;24.00;99.90
61386;DHT22;47256;18.904;-99.054;2022-09-01T05:56:06;24.10;99.90
61386;DHT22;47256;18.904;-99.054;2022-09-01T05:58:37;24.10;99.90
61386;DHT22;47256;18.904;-99.054;2022-09-01T06:01:06;24.00;99.90
61386;DHT22;47256;18.904;-99.054;2022-09-01T06:03:38;24.00;99.90
61386;DHT22;47256;18.904;-99.054;2022-09-01T06:06:16;24.00;99.90
61386;DHT22;47256;18.904;-99.054;2022-09-01T06:08:45;24.00;99.90
61386;DHT22;47256;18.904;-99.054;2022-09-01T06:11:15;24.00;99.90
61386;DHT22;47256;18.904;-99.054;2022-09-01T06:13:46;24.00;99.90
61386;DHT22;47256;18.904;-99.054;2022-09-01T06:16:14;24.00;99.90
61386;DHT22;47256;18.904;-99.054;2022-09-01T06:18:44;24.00;99.90
61386;DHT22;47256;18.904;-99.054;2022-09-01T06:21:12;24.00;99.90
61386;DHT22;47256;18.904;-99.054;2022-09-01T06:23:43;24.00;99.90
61386;DHT22;47256;18.904;-99.054;2022-09-01T06:26:22;23.90;99.90
61386;DHT22;47256;18.904;-99.054;2022-09-01T06:28:59;23.90;99.90
61386;DHT22;47256;18.904;-99.054;2022-09-01T06:31:33;23.90;99.90
61386;DHT22;47256;18.904;-99.054;2022-09-01T06:34:10;23.80;99.90
61386;DHT22;47256;18.904;-99.054;2022-09-01T06:36:47;23.80;99.90
61386;DHT22;47256;18.904;-99.054;2022-09-01T06:39:19;23.70;99.90
61386;DHT22;47256;18.904;-99.054;2022-09-01T06:41:50;23.80;99.90
61386;DHT22;47256;18.904;-99.054;2022-09-01T06:44:32;23.70;99.90
61386;DHT22;47256;18.904;-99.054;2022-09-01T06:47:04;23.60;99.90
61386;DHT22;47256;18.904;-99.054;2022-09-01T06:49:32;23.60;99.90
61386;DHT22;47256;18.904;-99.054;2022-09-01T06:52:08;23.60;99.90
61386;DHT22;47256;18.904;-99.054;2022-09-01T06:54:37;23.70;99.90
61386;DHT22;47256;18.904;-99.054;2022-09-01T06:57:05;23.60;99.90
61386;DHT22;47256;18.904;-99.054;2022-09-01T06:59:35;23.50;99.90
61386;DHT22;47256;18.904;-99.054;2022-09-01T07:02:04;23.50;99.90
61386;DHT22;47256;18.904;-99.054;2022-09-01T07:04:54;23.40;99.90
61386;DHT22;47256;18.904;-99.054;2022-09-01T07:07:21;23.30;99.90
61386;DHT22;47256;18.904;-99.054;2022-09-01T07:10:07;23.10;99.90
61386;DHT22;47256;18.904;-99.054;2022-09-01T07:12:40;22.90;99.90
61386;DHT22;47256;18.904;-99.054;2022-09-01T07:15:12;22.70;99.90
61386;DHT22;47256;18.904;-99.054;2022-09-01T07:17:53;22.60;99.90
61386;DHT22;47256;18.904;-99.054;2022-09-01T07:20:25;22.50;99.90
61386;DHT22;47256;18.904;-99.054;2022-09-01T07:22:57;22.30;99.90
61386;DHT22;47256;18.904;-99.054;2022-09-01T07:25:25;22.30;99.90
61386;DHT22;47256;18.904;-99.054;2022-09-01T07:28:08;22.30;99.90
61386;DHT22;47256;18.904;-99.054;2022-09-01T07:30:45;22.40;99.90
61386;DHT22;47256;18.904;-99.054;2022-09-01T07:33:16;22.50;99.90
61386;DHT22;47256;18.904;-99.054;2022-09-01T07:35:46;22.60;99.90
61386;DHT22;47256;18.904;-99.054;2022-09-01T07:38:17;22.70;99.90
61386;DHT22;47256;18.904;-99.054;2022-09-01T07:40:45;22.70;99.90
61386;DHT22;47256;18.904;-99.054;2022-09-01T07:43:41;22.70;99.90
61386;DHT22;47256;18.904;-99.054;2022-09-01T07:46:20;22.80;99.90
61386;DHT22;47256;18.904;-99.054;2022-09-01T07:48:51;22.80;99.90
61386;DHT22;47256;18.904;-99.054;2022-09-01T07:51:21;22.80;99.90
61386;DHT22;47256;18.904;-99.054;2022-09-01T07:53:50;22.80;99.90
61386;DHT22;47256;18.904;-99.054;2022-09-01T07:56:20;22.90;99.90
61386;DHT22;47256;18.904;-99.054;2022-09-01T07:58:51;22.90;99.90
61386;DHT22;47256;18.904;-99.054;2022-09-01T08:01:22;23.00;99.90
61386;DHT22;47256;18.904;-99.054;2022-09-01T08:03:56;23.00;99.90
61386;DHT22;47256;18.904;-99.054;2022-09-01T08:06:28;23.00;99.90
61386;DHT22;47256;18.904;-99.054;2022-09-01T08:08:58;23.00;99.90
61386;DHT22;47256;18.904;-99.054;2022-09-01T08:11:30;23.00;99.90
61386;DHT22;47256;18.904;-99.054;2022-09-01T08:13:59;22.90;99.90
61386;DHT22;47256;18.904;-99.054;2022-09-01T08:16:29;22.90;99.90
61386;DHT22;47256;18.904;-99.054;2022-09-01T08:18:58;22.90;99.90
61386;DHT22;47256;18.904;-99.054;2022-09-01T08:21:47;22.80;99.90
61386;DHT22;47256;18.904;-99.054;2022-09-01T08:24:24;22.80;99.90
61386;DHT22;47256;18.904;-99.054;2022-09-01T08:26:53;22.90;99.90
61386;DHT22;47256;18.904;-99.054;2022-09-01T08:29:22;22.90;99.90
61386;DHT22;47256;18.904;-99.054;2022-09-01T08:31:49;22.90;99.90
61386;DHT22;47256;18.904;-99.054;2022-09-01T08:34:16;22.90;99.90
61386;DHT22;47256;18.904;-99.054;2022-09-01T08:36:45;22.90;99.90
61386;DHT22;47256;18.904;-99.054;2022-09-01T08:39:11;22.80;99.90
61386;DHT22;47256;18.904;-99.054;2022-09-01T08:41:43;22.70;99.90
61386;DHT22;47256;18.904;-99.054;2022-09-01T08:45:12;22.70;99.90
61386;DHT22;47256;18.904;-99.054;2022-09-01T08:47:20;22.70;99.90
61386;DHT22;47256;18.904;-99.054;2022-09-01T08:49:48;22.70;99.90
61386;DHT22;47256;18.904;-99.054;2022-09-01T08:52:38;22.70;99.90
61386;DHT22;47256;18.904;-99.054;2022-09-01T08:57:44;22.80;99.90
61386;DHT22;47256;18.904;-99.054;2022-09-01T09:00:21;22.80;99.90
61386;DHT22;47256;18.904;-99.054;2022-09-01T09:08:54;22.80;99.90
61386;DHT22;47256;18.904;-99.054;2022-09-01T09:16:38;22.80;99.90
61386;DHT22;47256;18.904;-99.054;2022-09-01T09:19:30;22.80;99.90
61386;DHT22;47256;18.904;-99.054;2022-09-01T09:22:03;22.80;99.90
61386;DHT22;47256;18.904;-99.054;2022-09-01T09:24:37;22.80;99.90
61386;DHT22;47256;18.904;-99.054;2022-09-01T09:27:29;22.80;99.90
61386;DHT22;47256;18.904;-99.054;2022-09-01T09:30:13;22.80;99.90
61386;DHT22;47256;18.904;-99.054;2022-09-01T09:32:59;22.80;99.90
61386;DHT22;47256;18.904;-99.054;2022-09-01T09:35:33;22.80;99.90
61386;DHT22;47256;18.904;-99.054;2022-09-01T09:38:22;22.70;99.90
61386;DHT22;47256;18.904;-99.054;2022-09-01T09:41:07;22.70;99.90
61386;DHT22;47256;18.904;-99.054;2022-09-01T09:43:54;22.70;99.90
61386;DHT22;47256;18.904;-99.054;2022-09-01T09:46:35;22.70;99.90
61386;DHT22;47256;18.904;-99.054;2022-09-01T09:49:18;22.60;99.90
61386;DHT22;47256;18.904;-99.054;2022-09-01T09:51:53;22.50;99.90
61386;DHT22;47256;18.904;-99.054;2022-09-01T09:54:32;22.50;99.90
61386;DHT22;47256;18.904;-99.054;2022-09-01T09:57:11;22.50;99.90
61386;DHT22;47256;18.904;-99.054;2022-09-01T10:04:52;22.40;99.90
61386;DHT22;47256;18.904;-99.054;2022-09-01T10:07:33;22.50;99.90
61386;DHT22;47256;18.904;-99.054;2022-09-01T10:10:26;22.50;99.90
61386;DHT22;47256;18.904;-99.054;2022-09-01T10:12:55;22.60;99.90
61386;DHT22;47256;18.904;-99.054;2022-09-01T10:15:29;22.60;99.90
61386;DHT22;47256;18.904;-99.054;2022-09-01T10:18:09;22.60;99.90
61386;DHT22;47256;18.904;-99.054;2022-09-01T10:23:34;22.60;99.90
61386;DHT22;47256;18.904;-99.054;2022-09-01T10:26:08;22.60;99.90
61386;DHT22;47256;18.904;-99.054;2022-09-01T10:28:54;22.60;99.90
61386;DHT22;47256;18.904;-99.054;2022-09-01T10:31:24;22.40;99.90
61386;DHT22;47256;18.904;-99.054;2022-09-01T10:33:51;22.40;99.90
61386;DHT22;47256;18.904;-99.054;2022-09-01T10:36:23;22.30;99.90
61386;DHT22;47256;18.904;-99.054;2022-09-01T10:38:51;22.30;99.90
61386;DHT22;47256;18.904;-99.054;2022-09-01T10:44:21;22.30;99.90
61386;DHT22;47256;18.904;-99.054;2022-09-01T10:46:50;22.20;99.90
61386;DHT22;47256;18.904;-99.054;2022-09-01T10:51:59;22.00;99.90
61386;DHT22;47256;18.904;-99.054;2022-09-01T11:06:02;21.90;99.90
61386;DHT22;47256;18.904;-99.054;2022-09-01T11:13:48;21.80;99.90
61386;DHT22;47256;18.904;-99.054;2022-09-01T11:16:28;21.80;99.90
61386;DHT22;47256;18.904;-99.054;2022-09-01T11:22:24;21.80;99.90
61386;DHT22;47256;18.904;-99.054;2022-09-01T11:30:52;21.60;99.90
61386;DHT22;47256;18.904;-99.054;2022-09-01T11:33:40;21.50;99.90
61386;DHT22;47256;18.904;-99.054;2022-09-01T11:38:49;21.60;99.90
61386;DHT22;47256;18.904;-99.054;2022-09-01T11:41:29;21.70;99.90
61386;DHT22;47256;18.904;-99.054;2022-09-01T11:44:01;21.70;99.90
61386;DHT22;47256;18.904;-99.054;2022-09-01T11:46:44;21.70;99.90
61386;DHT22;47256;18.904;-99.054;2022-09-01T11:49:38;21.80;99.90
61386;DHT22;47256;18.904;-99.054;2022-09-01T11:52:06;21.90;99.90
61386;DHT22;47256;18.904;-99.054;2022-09-01T11:54:42;21.90;99.90
61386;DHT22;47256;18.904;-99.054;2022-09-01T11:59:49;21.90;99.90
61386;DHT22;47256;18.904;-99.054;2022-09-01T12:02:21;21.90;99.90
61386;DHT22;47256;18.904;-99.054;2022-09-01T12:04:52;21.90;99.90
61386;DHT22;47256;18.904;-99.054;2022-09-01T12:07:41;21.90;99.90
61386;DHT22;47256;18.904;-99.054;2022-09-01T12:12:46;21.90;99.90
61386;DHT22;47256;18.904;-99.054;2022-09-01T12:15:22;22.00;99.90
61386;DHT22;47256;18.904;-99.054;2022-09-01T12:17:52;22.00;99.90
61386;DHT22;47256;18.904;-99.054;2022-09-01T12:20:36;22.00;99.90
61386;DHT22;47256;18.904;-99.054;2022-09-01T12:23:28;22.10;99.90
61386;DHT22;47256;18.904;-99.054;2022-09-01T12:26:10;22.10;99.90
61386;DHT22;47256;18.904;-99.054;2022-09-01T12:28:40;22.10;99.90
61386;DHT22;47256;18.904;-99.054;2022-09-01T12:31:21;22.10;99.90
61386;DHT22;47256;18.904;-99.054;2022-09-01T12:33:52;22.20;99.90
61386;DHT22;47256;18.904;-99.054;2022-09-01T12:36:31;22.20;99.90
61386;DHT22;47256;18.904;-99.054;2022-09-01T12:39:22;22.10;99.90
61386;DHT22;47256;18.904;-99.054;2022-09-01T12:52:53;22.10;99.90
61386;DHT22;47256;18.904;-99.054;2022-09-01T12:55:24;22.10;99.90
61386;DHT22;47256;18.904;-99.054;2022-09-01T12:57:54;22.10;99.90
61386;DHT22;47256;18.904;-99.054;2022-09-01T13:00:25;22.10;99.90
61386;DHT22;47256;18.904;-99.054;2022-09-01T13:03:12;22.10;99.90
61386;DHT22;47256;18.904;-99.054;2022-09-01T13:05:45;22.20;99.90
61386;DHT22;47256;18.904;-99.054;2022-09-01T13:08:20;22.20;99.90
61386;DHT22;47256;18.904;-99.054;2022-09-01T13:11:09;22.20;99.90
61386;DHT22;47256;18.904;-99.054;2022-09-01T13:13:40;22.20;99.90
61386;DHT22;47256;18.904;-99.054;2022-09-01T13:16:07;22.20;99.90
61386;DHT22;47256;18.904;-99.054;2022-09-01T13:18:40;22.30;99.90
61386;DHT22;47256;18.904;-99.054;2022-09-01T13:21:07;22.30;99.90
61386;DHT22;47256;18.904;-99.054;2022-09-01T13:23:38;22.20;99.90
61386;DHT22;47256;18.904;-99.054;2022-09-01T13:26:05;22.20;99.90
61386;DHT22;47256;18.904;-99.054;2022-09-01T13:28:34;22.20;99.90
61386;DHT22;47256;18.904;-99.054;2022-09-01T13:31:02;22.20;99.90
61386;DHT22;47256;18.904;-99.054;2022-09-01T13:33:35;22.20;99.90
61386;DHT22;47256;18.904;-99.054;2022-09-01T13:36:03;22.20;99.90
61386;DHT22;47256;18.904;-99.054;2022-09-01T13:38:32;22.20;99.90
61386;DHT22;47256;18.904;-99.054;2022-09-01T13:40:59;22.20;99.90
61386;DHT22;47256;18.904;-99.054;2022-09-01T13:43:30;22.10;99.90
61386;DHT22;47256;18.904;-99.054;2022-09-01T13:45:57;22.20;99.90
61386;DHT22;47256;18.904;-99.054;2022-09-01T13:48:24;22.30;99.90
61386;DHT22;47256;18.904;-99.054;2022-09-01T13:50:51;22.30;99.90
61386;DHT22;47256;18.904;-99.054;2022-09-01T13:53:20;22.30;99.90
61386;DHT22;47256;18.904;-99.054;2022-09-01T13:55:47;22.30;99.90
61386;DHT22;47256;18.904;-99.054;2022-09-01T13:58:15;22.40;99.90
61386;DHT22;47256;18.904;-99.054;2022-09-01T14:00:45;22.50;99.90
61386;DHT22;47256;18.904;-99.054;2022-09-01T14:03:15;22.60;99.90
61386;DHT22;47256;18.904;-99.054;2022-09-01T14:05:47;22.70;99.90
61386;DHT22;47256;18.904;-99.054;2022-09-01T14:08:17;22.90;99.90
61386;DHT22;47256;18.904;-99.054;2022-09-01T14:10:48;22.90;99.90
61386;DHT22;47256;18.904;-99.054;2022-09-01T14:13:17;23.00;99.90
61386;DHT22;47256;18.904;-99.054;2022-09-01T14:15:45;23.10;99.90
61386;DHT22;47256;18.904;-99.054;2022-09-01T14:18:14;23.10;99.90
61386;DHT22;47256;18.904;-99.054;2022-09-01T14:20:46;23.00;99.90
61386;DHT22;47256;18.904;-99.054;2022-09-01T14:23:14;23.00;99.90
61386;DHT22;47256;18.904;-99.054;2022-09-01T14:25:48;22.90;99.90
61386;DHT22;47256;18.904;-99.054;2022-09-01T14:28:17;22.90;99.90
61386;DHT22;47256;18.904;-99.054;2022-09-01T14:30:45;22.90;99.90
61386;DHT22;47256;18.904;-99.054;2022-09-01T14:33:13;22.90;99.90
61386;DHT22;47256;18.904;-99.054;2022-09-01T14:35:42;23.00;99.90
61386;DHT22;47256;18.904;-99.054;2022-09-01T14:38:10;23.00;99.90
61386;DHT22;47256;18.904;-99.054;2022-09-01T14:40:41;23.00;99.90
61386;DHT22;47256;18.904;-99.054;2022-09-01T14:43:11;22.90;99.90
61386;DHT22;47256;18.904;-99.054;2022-09-01T14:45:41;23.00;99.90
61386;DHT22;47256;18.904;-99.054;2022-09-01T14:48:15;23.10;99.90
61386;DHT22;47256;18.904;-99.054;2022-09-01T14:50:48;23.20;99.90
61386;DHT22;47256;18.904;-99.054;2022-09-01T14:53:15;23.30;99.90
61386;DHT22;47256;18.904;-99.054;2022-09-01T14:55:42;23.30;99.90
61386;DHT22;47256;18.904;-99.054;2022-09-01T14:58:09;23.40;99.90
61386;DHT22;47256;18.904;-99.054;2022-09-01T15:00:37;23.50;99.90
61386;DHT22;47256;18.904;-99.054;2022-09-01T15:03:07;23.60;99.90
61386;DHT22;47256;18.904;-99.054;2022-09-01T15:05:35;23.60;99.90
61386;DHT22;47256;18.904;-99.054;2022-09-01T15:08:03;23.60;99.90
61386;DHT22;47256;18.904;-99.054;2022-09-01T15:10:30;23.80;99.90
61386;DHT22;47256;18.904;-99.054;2022-09-01T15:13:00;23.80;99.90
61386;DHT22;47256;18.904;-99.054;2022-09-01T15:15:28;23.90;99.90
61386;DHT22;47256;18.904;-99.054;2022-09-01T15:17:57;24.00;99.90
61386;DHT22;47256;18.904;-99.054;2022-09-01T15:20:26;24.10;99.90
61386;DHT22;47256;18.904;-99.054;2022-09-01T15:23:15;24.20;99.90
61386;DHT22;47256;18.904;-99.054;2022-09-01T15:25:47;24.20;99.90
61386;DHT22;47256;18.904;-99.054;2022-09-01T15:28:15;24.20;99.90
61386;DHT22;47256;18.904;-99.054;2022-09-01T15:30:44;24.30;99.90
61386;DHT22;47256;18.904;-99.054;2022-09-01T15:33:12;24.40;99.90
61386;DHT22;47256;18.904;-99.054;2022-09-01T15:35:39;24.50;99.90
61386;DHT22;47256;18.904;-99.054;2022-09-01T15:38:07;24.60;99.90
61386;DHT22;47256;18.904;-99.054;2022-09-01T15:40:37;24.60;99.90
61386;DHT22;47256;18.904;-99.054;2022-09-01T15:43:05;24.80;99.90
61386;DHT22;47256;18.904;-99.054;2022-09-01T15:45:33;24.80;99.90
61386;DHT22;47256;18.904;-99.054;2022-09-01T15:48:01;24.90;99.90
61386;DHT22;47256;18.904;-99.054;2022-09-01T15:50:31;25.00;99.90
61386;DHT22;47256;18.904;-99.054;2022-09-01T15:53:01;25.10;99.90
61386;DHT22;47256;18.904;-99.054;2022-09-01T15:55:36;25.20;99.90
61386;DHT22;47256;18.904;-99.054;2022-09-01T15:58:08;25.40;99.90
61386;DHT22;47256;18.904;-99.054;2022-09-01T16:00:36;25.50;99.90
61386;DHT22;47256;18.904;-99.054;2022-09-01T16:03:08;25.50;99.90
61386;DHT22;47256;18.904;-99.054;2022-09-01T16:05:37;25.60;99.90
61386;DHT22;47256;18.904;-99.054;2022-09-01T16:08:07;25.70;99.90
61386;DHT22;47256;18.904;-99.054;2022-09-01T16:10:36;25.80;99.90
61386;DHT22;47256;18.904;-99.054;2022-09-01T16:13:06;25.90;99.90
61386;DHT22;47256;18.904;-99.054;2022-09-01T16:15:36;26.00;99.90
61386;DHT22;47256;18.904;-99.054;2022-09-01T16:24:08;26.30;99.90
61386;DHT22;47256;18.904;-99.054;2022-09-01T16:26:39;26.30;99.90
61386;DHT22;47256;18.904;-99.054;2022-09-01T16:29:11;26.40;99.90
61386;DHT22;47256;18.904;-99.054;2022-09-01T16:31:41;26.70;99.90
61386;DHT22;47256;18.904;-99.054;2022-09-01T16:34:13;26.80;99.90
61386;DHT22;47256;18.904;-99.054;2022-09-01T16:36:50;27.00;99.90
61386;DHT22;47256;18.904;-99.054;2022-09-01T16:42:12;27.00;99.90
61386;DHT22;47256;18.904;-99.054;2022-09-01T16:47:37;26.90;99.90
61386;DHT22;47256;18.904;-99.054;2022-09-01T16:56:06;27.10;99.90
61386;DHT22;47256;18.904;-99.054;2022-09-01T17:04:24;27.30;99.90
61386;DHT22;47256;18.904;-99.054;2022-09-01T17:07:06;27.50;99.90
61386;DHT22;47256;18.904;-99.054;2022-09-01T17:12:22;27.80;99.90
61386;DHT22;47256;18.904;-99.054;2022-09-01T17:15:07;27.90;99.90
61386;DHT22;47256;18.904;-99.054;2022-09-01T17:17:57;28.00;99.90